Kobuk Valley National Park, AK

5:31 PM AKDT op 21 oktober 2014 (GMT -0800)
Noatak | Change Station
CLOSE
Current Station
Luchthaven
Location: Noatak,
Geometrische hoogte: 85 ft
Nabije weerstations

Hoogte 85 ft 67.57 °N, 162.98 °W | Updated 15 minutes ago

Clear
Helder
30 °F
Voelt als 22 °F
N
9
Wind Variabel Wind van NNO

Vandaag
Hoog -- | Laag -- °F
--% Kans op neerslag
Gisteren
Hoog -- | Laag -- °F
Precip. -- inches
10:06 AM 6:43 PM
Afnemende halvemaan, 3% visible
Druk 29.67 inches
Zicht 10.0 mijlen
Wolken Helder
Gevoelstemperatuur 22 °F
Dauwpunt 14 °F
Vochtigheid 51%
Neerslag 0.00 inches
Dikte sneeuw Niet beschikbaar.
UV 0 van de 12
Pollen Niet beschikbaar.
Luchtkwaliteit Niet beschikbaar.
Flu Activity Sporadic
METAR PAWN 220116Z AUTO 03008KT 10SM CLR M01/M10 A2967 RMK AO1

More Conditions Fewer Conditions

Druk 29.67 inches
Zicht 10.0 mijlen
Wolken Helder
Gevoelstemperatuur 22 °F
Dauwpunt 14 °F
Vochtigheid 51%
Neerslag 0.00 inches
Dikte sneeuw Niet beschikbaar.
UV 0 van de 12
Pollen Niet beschikbaar.
Luchtkwaliteit Niet beschikbaar.
Flu Activity Sporadic
METAR PAWN 220116Z AUTO 03008KT 10SM CLR M01/M10 A2967 RMK AO1

More Conditions Fewer Conditions

10-Day Weather Forecast

Almanac

Astronomie

Oct. 21, 2014 Opkomst Ondergang
Werkelijke tijd 10:06 AM AKDT 6:43 PM AKDT
Burgerlijke schemering 9:08 AM AKDT 7:41 PM AKDT
Nautische schemering 8:04 AM AKDT 8:44 PM AKDT
Astronomische schemering 7:01 AM AKDT 9:48 PM AKDT
Maan 7:08 AM AKDT (10/21) 6:26 PM AKDT (10/21)
Golflengte van het zichtbare licht 10h 33m
Daglengte
8h 37m
Tomorrow will be 7m 51s shorter.
Afnemende halvemaan, 3% of the Moon is Illuminated
Vandaag
Afnemende halvemaan
oktober 23
Nieuw
oktober 30
Eerste kwartier
nov 6
Volle maan
nov 14
Laatste kwartier

Extremen vandaag

State Highs State Lows

Community

WunderPhotos

Upload Photos

1,763,844 foto’s ge-upload!

Nearby

Luchtkwaliteit

Not available.

Dikte sneeuw

Station Depth Geometrische hoogte
Rocky Point 3 in 500 ft
Gobblers Knob 1 in 2030 ft
Coldfoot 5 in 1040 ft
Atigun Pass 14 in 4800 ft
Imnaviat Creek 21 in 3050 ft

Aardbevingen

Stad Distance Mag. Time & Date
No recent earthquake activity has been reported nearby.
Minimum magnitude displayed is 2.5.

Watertemperatuur langs de kust

Plaats Temperatuur
Geen meldingen van stations

Nabije weerstations